createdAt,value
2023-03-11T00:02:46.853Z,1.13
2023-03-11T00:07:51.566Z,1.20
2023-03-11T00:12:54.964Z,0.97
2023-03-11T00:17:58.999Z,0.98
2023-03-11T00:23:05.089Z,1.63
2023-03-11T00:28:10.855Z,1.42
2023-03-11T00:33:15.458Z,2.35
2023-03-11T00:38:20.503Z,1.70
2023-03-11T00:43:23.812Z,2.33
2023-03-11T00:48:27.301Z,2.30
2023-03-11T00:53:32.133Z,2.78
2023-03-11T00:58:35.870Z,3.77
2023-03-11T01:03:40.160Z,3.88
2023-03-11T01:08:44.883Z,4.68
2023-03-11T01:13:48.307Z,4.67
2023-03-11T01:18:51.621Z,7.30
2023-03-11T01:23:56.253Z,6.55
2023-03-11T01:28:59.552Z,9.00
2023-03-11T01:34:02.843Z,4.97
2023-03-11T01:39:07.725Z,4.90
2023-03-11T01:44:12.777Z,5.97
2023-03-11T01:49:16.638Z,6.18
2023-03-11T01:54:25.266Z,5.88
2023-03-11T01:59:32.693Z,5.50
2023-03-11T02:04:37.946Z,5.45
2023-03-11T02:09:42.945Z,11.05
2023-03-11T02:14:49.964Z,7.20
2023-03-11T02:20:07.693Z,6.65
2023-03-11T02:25:22.728Z,11.45
2023-03-11T02:30:30.170Z,11.33
2023-03-11T02:35:34.134Z,6.60
2023-03-11T02:40:42.996Z,8.13
2023-03-11T02:45:49.741Z,9.45
2023-03-11T02:50:54.224Z,8.68
2023-03-11T02:55:57.933Z,8.48
2023-03-11T03:01:03.763Z,7.93
2023-03-11T03:06:07.917Z,5.57
2023-03-11T03:11:11.684Z,9.25
2023-03-11T03:16:17.805Z,8.65
2023-03-11T03:21:21.349Z,7.60
2023-03-11T03:26:25.557Z,11.27
2023-03-11T03:31:30.654Z,12.00
2023-03-11T03:36:35.483Z,14.35
2023-03-11T03:41:41.547Z,14.55
2023-03-11T03:46:47.089Z,9.30
2023-03-11T03:51:50.478Z,16.42
2023-03-11T03:57:03.598Z,13.77
2023-03-11T04:02:10.700Z,10.48
2023-03-11T04:07:14.290Z,8.05
2023-03-11T04:12:18.573Z,7.47
2023-03-11T04:17:24.358Z,8.35
2023-03-11T04:22:29.927Z,10.45
2023-03-11T04:27:34.128Z,8.32
2023-03-11T04:32:41.297Z,7.10
2023-03-11T04:37:44.660Z,7.20
2023-03-11T04:42:48.650Z,7.80
2023-03-11T04:47:55.271Z,10.10
2023-03-11T04:52:58.770Z,6.25
2023-03-11T04:58:02.846Z,7.22
2023-03-11T05:03:08.103Z,8.73
2023-03-11T05:08:11.576Z,6.10
2023-03-11T05:13:17.039Z,9.00
2023-03-11T05:18:21.784Z,8.85
2023-03-11T05:23:26.157Z,13.20
2023-03-11T05:28:30.102Z,12.25
2023-03-11T05:33:35.939Z,10.18
2023-03-11T05:38:41.271Z,11.68
2023-03-11T05:43:44.620Z,10.70
2023-03-11T05:48:49.592Z,11.10
2023-03-11T05:53:53.100Z,10.53
2023-03-11T05:59:05.329Z,10.43
2023-03-11T06:04:13.622Z,10.20
2023-03-11T06:09:18.217Z,8.20
2023-03-11T06:14:22.093Z,11.90
2023-03-11T06:19:28.933Z,7.75
2023-03-11T06:24:32.603Z,8.95
2023-03-11T06:29:37.613Z,5.70
2023-03-11T06:34:43.065Z,7.47
2023-03-11T06:39:47.420Z,7.97
2023-03-11T06:44:56.777Z,7.18
2023-03-11T06:50:06.226Z,7.78
2023-03-11T06:55:10.913Z,7.15
2023-03-11T07:00:15.551Z,5.85
2023-03-11T07:05:25.316Z,5.85
2023-03-11T07:10:33.719Z,6.07
2023-03-11T07:15:37.158Z,6.70
2023-03-11T07:20:41.949Z,7.28
2023-03-11T07:25:47.602Z,6.93
2023-03-11T07:30:50.837Z,4.80
2023-03-11T07:35:55.506Z,6.80
2023-03-11T07:41:00.063Z,9.43
2023-03-11T07:46:05.056Z,7.00
2023-03-11T07:51:12.696Z,6.22
2023-03-11T07:56:18.258Z,5.78
2023-03-11T08:01:24.996Z,6.80
2023-03-11T08:06:31.910Z,9.52
2023-03-11T08:11:35.179Z,6.65
2023-03-11T08:16:41.397Z,7.38
2023-03-11T08:21:46.204Z,8.27
2023-03-11T08:26:49.556Z,8.47
2023-03-11T08:31:53.263Z,7.55
2023-03-11T08:36:58.043Z,6.55
2023-03-11T08:42:01.555Z,5.77
2023-03-11T08:47:04.804Z,4.88
2023-03-11T08:52:09.514Z,5.88
2023-03-11T08:57:12.805Z,4.90
2023-03-11T09:02:16.226Z,5.13
2023-03-11T09:07:21.245Z,4.95
2023-03-11T09:12:24.437Z,5.45
2023-03-11T09:17:27.851Z,4.82
2023-03-11T09:22:32.952Z,5.97
2023-03-11T09:27:36.699Z,5.57
2023-03-11T09:32:40.388Z,4.75
2023-03-11T09:37:45.136Z,5.38
2023-03-11T09:42:58.364Z,5.70
2023-03-11T09:48:12.045Z,5.18
2023-03-11T09:53:34.340Z,5.22
2023-03-11T09:58:41.518Z,6.57
2023-03-11T10:03:45.747Z,6.40
2023-03-11T10:08:58.282Z,5.22
2023-03-11T10:14:14.190Z,5.82
2023-03-11T10:24:42.117Z,6.25
2023-03-11T10:29:55.037Z,5.60
2023-03-11T10:35:05.217Z,4.80
2023-03-11T10:40:23.966Z,6.32
2023-03-11T10:45:30.228Z,5.38
2023-03-11T10:50:36.834Z,8.05
2023-03-11T10:55:48.455Z,6.25
2023-03-11T11:01:16.730Z,6.40
2023-03-11T11:06:25.304Z,6.60
2023-03-11T11:11:30.135Z,7.40
2023-03-11T11:16:35.389Z,7.17
2023-03-11T11:21:40.962Z,8.38
2023-03-11T11:27:04.787Z,5.65
2023-03-11T11:32:25.721Z,7.40
2023-03-11T11:37:32.422Z,5.95
2023-03-11T11:42:38.528Z,6.05
2023-03-11T11:47:46.077Z,6.70
2023-03-11T11:52:53.853Z,6.30
2023-03-11T11:57:58.935Z,6.18
2023-03-11T12:03:34.843Z,5.43
2023-03-11T12:08:43.867Z,5.10
2023-03-11T12:14:00.560Z,5.40
2023-03-11T12:19:08.441Z,5.85
2023-03-11T12:24:26.971Z,5.03
2023-03-11T12:29:34.321Z,4.72
2023-03-11T12:34:37.796Z,5.78
2023-03-11T12:39:41.181Z,4.45
2023-03-11T12:44:47.394Z,4.63
2023-03-11T12:49:55.191Z,4.43
2023-03-11T12:55:38.322Z,5.15
2023-03-11T13:01:05.069Z,4.75
2023-03-11T13:06:27.984Z,5.10
2023-03-11T13:11:43.263Z,4.95
2023-03-11T13:16:49.146Z,5.57
2023-03-11T13:21:52.868Z,6.57
2023-03-11T13:27:05.094Z,5.57
2023-03-11T13:32:26.520Z,5.10
2023-03-11T13:37:43.938Z,5.32
2023-03-11T13:42:50.441Z,4.47
2023-03-11T13:47:59.189Z,4.50
2023-03-11T13:53:09.684Z,4.15
2023-03-11T13:58:18.031Z,3.13
2023-03-11T14:03:25.860Z,3.20
2023-03-11T14:08:32.199Z,3.83
2023-03-11T14:13:43.670Z,3.30
2023-03-11T14:18:50.278Z,3.17
2023-03-11T14:23:56.136Z,2.60
2023-03-11T14:29:02.381Z,3.22
2023-03-11T14:34:15.912Z,3.17
2023-03-11T14:39:31.460Z,2.35
2023-03-11T14:44:37.017Z,2.22
2023-03-11T14:54:47.145Z,2.35
2023-03-11T14:59:52.259Z,1.90
2023-03-11T15:05:00.514Z,2.28
2023-03-11T15:10:08.128Z,2.03
2023-03-11T15:15:27.771Z,1.42
2023-03-11T15:20:35.589Z,1.70
2023-03-11T15:25:40.787Z,1.10
2023-03-11T15:30:44.551Z,1.35
2023-03-11T15:35:50.858Z,2.08
2023-03-11T15:40:57.814Z,1.45
2023-03-11T15:46:04.457Z,1.77
2023-03-11T15:51:21.164Z,1.92
2023-03-11T15:56:26.377Z,1.73
2023-03-11T16:01:31.416Z,1.92
2023-03-11T16:06:36.501Z,1.67
2023-03-11T16:11:40.862Z,2.13
2023-03-11T16:16:45.177Z,2.00
2023-03-11T16:21:50.867Z,2.40
2023-03-11T16:26:55.290Z,1.60
2023-03-11T16:31:58.709Z,2.10
2023-03-11T16:37:03.888Z,1.60
2023-03-11T16:42:07.684Z,1.50
2023-03-11T16:47:11.118Z,1.70
2023-03-11T16:52:20.649Z,1.95
2023-03-11T16:57:24.396Z,1.70
2023-03-11T17:02:28.053Z,2.10
2023-03-11T17:07:33.056Z,1.40
2023-03-11T17:12:37.398Z,2.10
2023-03-11T17:17:41.114Z,2.30
2023-03-11T17:22:46.211Z,1.77
2023-03-11T17:27:50.230Z,2.17
2023-03-11T17:32:54.230Z,3.20
2023-03-11T17:37:59.332Z,3.35
2023-03-11T17:43:02.994Z,2.35
2023-03-11T17:48:06.872Z,4.20
2023-03-11T17:53:11.603Z,3.20
2023-03-11T17:58:15.046Z,3.10
2023-03-11T18:03:18.332Z,2.42
2023-03-11T18:08:23.021Z,2.28
2023-03-11T18:13:27.114Z,3.25
2023-03-11T18:18:31.596Z,2.58
2023-03-11T18:23:36.813Z,4.07
2023-03-11T18:28:41.718Z,3.47
2023-03-11T18:33:49.294Z,3.42
2023-03-11T18:38:56.824Z,3.72
2023-03-11T18:44:00.745Z,3.72
2023-03-11T18:49:05.592Z,3.80
2023-03-11T18:54:11.751Z,4.32
2023-03-11T18:59:14.994Z,4.47
2023-03-11T19:04:18.231Z,5.03
2023-03-11T19:09:22.938Z,5.35
2023-03-11T19:14:26.208Z,5.43
2023-03-11T19:19:31.574Z,5.70
2023-03-11T19:24:36.474Z,5.80
2023-03-11T19:29:40.249Z,4.07
2023-03-11T19:34:43.869Z,4.80
2023-03-11T19:39:48.538Z,5.07
2023-03-11T19:44:52.440Z,5.90
2023-03-11T19:49:56.039Z,5.20
2023-03-11T19:55:00.801Z,4.82
2023-03-11T20:00:04.666Z,5.60
2023-03-11T20:05:09.254Z,4.85
2023-03-11T20:10:16.445Z,5.03
2023-03-11T20:15:20.812Z,5.10
2023-03-11T20:20:24.115Z,4.65
2023-03-11T20:25:32.317Z,5.13
2023-03-11T20:30:36.049Z,5.50
2023-03-11T20:35:41.112Z,6.28
2023-03-11T20:40:46.377Z,5.72
2023-03-11T20:45:49.729Z,5.05
2023-03-11T20:50:53.726Z,6.10
2023-03-11T20:55:58.533Z,4.85
2023-03-11T21:01:01.941Z,3.13
2023-03-11T21:06:05.612Z,4.45
2023-03-11T21:11:10.834Z,4.85
2023-03-11T21:16:14.488Z,4.25
2023-03-11T21:21:19.246Z,3.63
2023-03-11T21:26:24.021Z,4.05
2023-03-11T21:31:29.479Z,4.50
2023-03-11T21:41:38.031Z,4.07
2023-03-11T21:46:41.453Z,4.47
2023-03-11T21:51:44.828Z,3.90
2023-03-11T21:56:49.534Z,3.05
2023-03-11T22:01:52.912Z,4.10
2023-03-11T22:06:57.417Z,4.38
2023-03-11T22:12:02.343Z,3.10
2023-03-11T22:17:05.852Z,2.83
2023-03-11T22:22:09.214Z,2.97
2023-03-11T22:27:14.124Z,3.35
2023-03-11T22:32:17.601Z,3.47
2023-03-11T22:37:21.001Z,3.13
2023-03-11T22:42:25.687Z,3.25
2023-03-11T22:47:28.908Z,2.57
2023-03-11T22:52:32.229Z,2.47
2023-03-11T22:57:38.940Z,2.97
2023-03-11T23:02:42.425Z,3.35
2023-03-11T23:07:45.764Z,2.55
2023-03-11T23:12:50.838Z,3.88
2023-03-11T23:17:54.138Z,2.30
2023-03-11T23:22:57.423Z,2.47
2023-03-11T23:28:03.032Z,3.30
2023-03-11T23:33:06.316Z,2.95
2023-03-11T23:38:10.404Z,3.03
2023-03-11T23:43:15.041Z,4.18
2023-03-11T23:48:18.648Z,3.30
2023-03-11T23:53:23.330Z,3.97
2023-03-11T23:58:28.063Z,3.83
